createdAt,value
2023-02-28T00:01:16.890Z,100534.59
2023-02-28T00:02:40.088Z,100531.03
2023-02-28T00:03:53.504Z,100536.25
2023-02-28T00:05:08.350Z,100539.75
2023-02-28T00:06:39.855Z,100540.72
2023-02-28T00:08:12.854Z,100538.91
2023-02-28T00:09:27.343Z,100533.78
2023-02-28T00:10:33.886Z,100545.13
2023-02-28T00:11:49.323Z,100538.25
2023-02-28T00:13:00.046Z,100535.72
2023-02-28T00:14:03.590Z,100538.34
2023-02-28T00:15:25.540Z,100541.81
2023-02-28T00:16:31.321Z,100539.19
2023-02-28T00:17:40.499Z,100541.81
2023-02-28T00:18:51.364Z,100540.94
2023-02-28T00:20:17.414Z,100544.44
2023-02-28T00:21:32.215Z,100541.84
2023-02-28T00:23:07.867Z,100545.31
2023-02-28T00:24:18.402Z,100548.81
2023-02-28T00:25:31.844Z,100540.97
2023-02-28T00:26:45.666Z,100540.09
2023-02-28T00:27:50.166Z,100538.34
2023-02-28T00:28:59.230Z,100545.31
2023-02-28T00:30:17.320Z,100542.78
2023-02-28T00:31:22.322Z,100541.81
2023-02-28T00:32:26.153Z,100548.03
2023-02-28T00:33:30.671Z,100542.81
2023-02-28T00:34:38.835Z,100544.53
2023-02-28T00:35:43.041Z,100549.91
2023-02-28T00:36:49.977Z,100546.34
2023-02-28T00:37:54.200Z,100538.56
2023-02-28T00:38:58.345Z,100542.84
2023-02-28T00:40:03.386Z,100546.31
2023-02-28T00:41:12.219Z,100547.19
2023-02-28T00:42:16.065Z,100549.03
2023-02-28T00:43:20.239Z,100540.25
2023-02-28T00:44:27.321Z,100543.72
2023-02-28T00:45:31.113Z,100550.72
2023-02-28T00:46:35.126Z,100539.41
2023-02-28T00:47:39.240Z,100547.25
2023-02-28T00:48:43.335Z,100535.91
2023-02-28T00:49:47.015Z,100540.25
2023-02-28T00:50:51.219Z,100546.41
2023-02-28T00:51:58.056Z,100538.53
2023-02-28T00:53:08.904Z,100549.03
2023-02-28T00:54:25.432Z,100556.91
2023-02-28T00:55:31.307Z,100546.41
2023-02-28T00:56:35.360Z,100548.13
2023-02-28T00:57:43.216Z,100542.88
2023-02-28T00:58:50.471Z,100542.88
2023-02-28T01:00:14.914Z,100540.31
2023-02-28T01:01:18.787Z,100538.56
2023-02-28T01:02:33.570Z,100541.25
2023-02-28T01:03:37.786Z,100539.59
2023-02-28T01:04:41.426Z,100537.78
2023-02-28T01:05:45.577Z,100541.28
2023-02-28T01:06:49.250Z,100547.41
2023-02-28T01:07:53.247Z,100548.28
2023-02-28T01:08:57.190Z,100546.59
2023-02-28T01:10:00.680Z,100551.78
2023-02-28T01:11:15.825Z,100550.97
2023-02-28T01:12:20.154Z,100550.97
2023-02-28T01:13:24.780Z,100553.59
2023-02-28T01:14:28.721Z,100551.88
2023-02-28T01:15:33.295Z,100552.81
2023-02-28T01:16:36.963Z,100550.16
2023-02-28T01:17:40.487Z,100547.56
2023-02-28T01:18:44.757Z,100549.34
2023-02-28T01:19:48.636Z,100546.72
2023-02-28T01:20:56.581Z,100552.84
2023-02-28T01:22:12.907Z,100542.38
2023-02-28T01:23:16.778Z,100550.22
2023-02-28T01:24:20.734Z,100554.59
2023-02-28T01:25:25.214Z,100553.72
2023-02-28T01:26:29.156Z,100551.09
2023-02-28T01:27:34.292Z,100545.84
2023-02-28T01:28:38.717Z,100546.72
2023-02-28T01:29:43.162Z,100549.34
2023-02-28T01:30:51.538Z,100551.09
2023-02-28T01:31:55.869Z,100550.25
2023-02-28T01:33:00.655Z,100551.13
2023-02-28T01:34:05.058Z,100555.53
2023-02-28T01:35:12.967Z,100553.81
2023-02-28T01:36:29.560Z,100550.28
2023-02-28T01:37:34.363Z,100563.38
2023-02-28T01:38:38.189Z,100546.78
2023-02-28T01:39:41.761Z,100552.00
2023-02-28T01:40:50.445Z,100561.59
2023-02-28T01:41:54.825Z,100557.22
2023-02-28T01:42:58.365Z,100556.38
2023-02-28T01:44:59.602Z,100555.47
2023-02-28T01:46:03.392Z,100560.81
2023-02-28T01:47:14.884Z,100552.94
2023-02-28T01:48:20.863Z,100552.91
2023-02-28T01:49:24.566Z,100556.41
2023-02-28T01:50:35.579Z,100552.03
2023-02-28T01:51:51.844Z,100559.88
2023-02-28T01:53:02.804Z,100547.66
2023-02-28T01:54:16.157Z,100554.59
2023-02-28T01:55:24.813Z,100555.47
2023-02-28T01:56:37.238Z,100558.19
2023-02-28T01:57:50.275Z,100559.03
2023-02-28T01:58:56.376Z,100555.50
2023-02-28T02:00:18.037Z,100553.75
2023-02-28T02:01:27.589Z,100548.56
2023-02-28T02:02:32.594Z,100552.06
2023-02-28T02:03:37.323Z,100550.31
2023-02-28T02:04:59.631Z,100552.94
2023-02-28T02:06:04.271Z,100545.97
2023-02-28T02:07:16.028Z,100544.22
2023-02-28T02:08:30.243Z,100540.72
2023-02-28T02:09:34.017Z,100547.66
2023-02-28T02:10:45.441Z,100542.47
2023-02-28T02:11:48.990Z,100537.22
2023-02-28T02:13:23.245Z,100538.09
2023-02-28T02:14:49.505Z,100545.09
2023-02-28T02:16:40.644Z,100537.25
2023-02-28T02:17:53.235Z,100531.16
2023-02-28T02:19:20.163Z,100535.53
2023-02-28T02:21:16.250Z,100535.56
2023-02-28T02:22:53.054Z,100533.84
2023-02-28T02:24:15.328Z,100537.31
2023-02-28T02:25:55.716Z,100537.34
2023-02-28T02:27:19.299Z,100540.88
2023-02-28T02:28:37.996Z,100538.25
2023-02-28T02:30:18.838Z,100533.94
2023-02-28T02:31:53.249Z,100530.44
2023-02-28T02:33:21.890Z,100533.16
2023-02-28T02:34:53.005Z,100531.38
2023-02-28T02:36:34.772Z,100530.53
2023-02-28T02:37:51.852Z,100524.44
2023-02-28T02:39:47.657Z,100531.44
2023-02-28T02:41:12.048Z,100532.31
2023-02-28T02:42:43.785Z,100530.56
2023-02-28T02:43:59.499Z,100526.25
2023-02-28T02:45:16.928Z,100523.63
2023-02-28T02:46:28.906Z,100527.13
2023-02-28T02:47:34.436Z,100526.22
2023-02-28T02:48:43.266Z,100518.41
2023-02-28T02:49:55.810Z,100528.00
2023-02-28T02:51:13.070Z,100524.53
2023-02-28T02:52:24.539Z,100521.03
2023-02-28T02:53:39.439Z,100522.81
2023-02-28T02:54:49.733Z,100516.75
2023-02-28T02:55:56.081Z,100528.09
2023-02-28T02:57:09.897Z,100522.00
2023-02-28T02:58:19.980Z,100526.38
2023-02-28T02:59:27.713Z,100529.00
2023-02-28T03:00:39.470Z,100526.41
2023-02-28T03:01:44.260Z,100525.53
2023-02-28T03:02:51.396Z,100525.56
2023-02-28T03:04:04.228Z,100526.44
2023-02-28T03:05:26.783Z,100519.44
2023-02-28T03:06:30.362Z,100518.56
2023-02-28T03:07:33.945Z,100518.56
2023-02-28T03:08:39.483Z,100524.69
2023-02-28T03:09:54.441Z,100521.16
2023-02-28T03:11:03.472Z,100528.16
2023-02-28T03:12:14.625Z,100521.16
2023-02-28T03:13:52.512Z,100526.47
2023-02-28T03:14:59.378Z,100520.38
2023-02-28T03:16:38.823Z,100526.53
2023-02-28T03:18:20.232Z,100535.22
2023-02-28T03:20:16.787Z,100522.19
2023-02-28T03:21:25.906Z,100529.16
2023-02-28T03:22:42.610Z,100534.41
2023-02-28T03:24:17.731Z,100524.81
2023-02-28T03:25:39.184Z,100531.81
2023-02-28T03:26:54.568Z,100532.66
2023-02-28T03:28:26.568Z,100537.94
2023-02-28T03:29:44.723Z,100533.59
2023-02-28T03:31:35.285Z,100533.63
2023-02-28T03:32:58.085Z,100536.22
2023-02-28T03:34:38.240Z,100537.13
2023-02-28T03:35:53.570Z,100531.00
2023-02-28T03:37:09.850Z,100537.97
2023-02-28T03:38:40.403Z,100537.97
2023-02-28T03:40:13.966Z,100540.59
2023-02-28T03:41:25.002Z,100542.34
2023-02-28T03:42:35.429Z,100544.97
2023-02-28T03:43:46.395Z,100541.47
2023-02-28T03:45:10.552Z,100543.22
2023-02-28T03:46:23.494Z,100545.88
2023-02-28T03:47:46.850Z,100536.28
2023-02-28T03:49:24.379Z,100549.38
2023-02-28T03:50:45.801Z,100547.69
2023-02-28T03:51:52.239Z,100543.31
2023-02-28T03:53:28.396Z,100546.81
2023-02-28T03:54:43.104Z,100552.06
2023-02-28T03:56:04.415Z,100553.84
2023-02-28T03:57:34.324Z,100546.00
2023-02-28T03:59:15.928Z,100545.13
2023-02-28T04:00:29.601Z,100552.16
2023-02-28T04:01:54.650Z,100553.91
2023-02-28T04:02:59.100Z,100552.16
2023-02-28T04:04:04.623Z,100547.78
2023-02-28T04:05:12.262Z,100552.16
2023-02-28T04:06:23.195Z,100548.66
2023-02-28T04:07:30.556Z,100553.91
2023-02-28T04:08:35.388Z,100550.44
2023-02-28T04:09:39.460Z,100553.91
2023-02-28T04:10:48.723Z,100557.41
2023-02-28T04:11:54.432Z,100554.78
2023-02-28T04:12:58.073Z,100553.03
2023-02-28T04:14:03.659Z,100552.22
2023-02-28T04:15:12.454Z,100555.69
2023-02-28T04:16:33.497Z,100558.31
2023-02-28T04:17:38.589Z,100567.03
2023-02-28T04:18:46.309Z,100560.06
2023-02-28T04:19:50.943Z,100557.47
2023-02-28T04:20:54.620Z,100559.25
2023-02-28T04:21:58.404Z,100561.00
2023-02-28T04:23:02.252Z,100562.72
2023-02-28T04:24:16.362Z,100560.13
2023-02-28T04:25:20.771Z,100561.00
2023-02-28T04:26:24.734Z,100559.22
2023-02-28T04:27:28.661Z,100557.50
2023-02-28T04:28:32.853Z,100557.47
2023-02-28T04:29:37.419Z,100556.59
2023-02-28T04:30:41.077Z,100561.84
2023-02-28T04:31:44.770Z,100558.38
2023-02-28T04:32:48.488Z,100562.72
2023-02-28T04:33:52.356Z,100567.97
2023-02-28T04:34:56.802Z,100574.09
2023-02-28T04:36:03.745Z,100563.63
2023-02-28T04:37:13.746Z,100572.31
2023-02-28T04:38:17.962Z,100572.38
2023-02-28T04:39:26.055Z,100574.09
2023-02-28T04:40:29.772Z,100567.97
2023-02-28T04:41:34.543Z,100569.75
2023-02-28T04:42:39.637Z,100566.28
2023-02-28T04:43:44.258Z,100566.28
2023-02-28T04:44:48.653Z,100574.16
2023-02-28T04:45:52.235Z,100573.25
2023-02-28T04:46:56.429Z,100572.38
2023-02-28T04:48:00.606Z,100573.25
2023-02-28T04:49:04.836Z,100572.38
2023-02-28T04:50:14.023Z,100569.78
2023-02-28T04:51:20.519Z,100580.22
2023-02-28T04:52:24.334Z,100575.88
2023-02-28T04:53:30.698Z,100584.63
2023-02-28T04:54:34.902Z,100578.53
2023-02-28T04:55:41.292Z,100582.03
2023-02-28T04:56:45.026Z,100582.91
2023-02-28T04:57:49.378Z,100579.44
2023-02-28T04:58:54.530Z,100581.19
2023-02-28T04:59:58.403Z,100579.44
2023-02-28T05:01:22.568Z,100589.91
2023-02-28T05:02:26.225Z,100583.84
2023-02-28T05:03:29.838Z,100586.47
2023-02-28T05:04:37.086Z,100584.72
2023-02-28T05:05:41.042Z,100581.25
2023-02-28T05:06:44.980Z,100581.22
2023-02-28T05:07:48.724Z,100576.03
2023-02-28T05:08:53.455Z,100576.88
2023-02-28T05:09:57.546Z,100585.59
2023-02-28T05:11:02.836Z,100578.66
2023-02-28T05:12:10.809Z,100579.53
2023-02-28T05:13:14.511Z,100590.88
2023-02-28T05:14:23.881Z,100583.91
2023-02-28T05:15:27.450Z,100583.03
2023-02-28T05:16:31.516Z,100582.19
2023-02-28T05:17:35.194Z,100583.03
2023-02-28T05:18:40.047Z,100586.50
2023-02-28T05:19:43.974Z,100586.50
2023-02-28T05:20:47.600Z,100586.56
2023-02-28T05:21:56.544Z,100594.38
2023-02-28T05:23:04.669Z,100588.28
2023-02-28T05:24:13.787Z,100591.78
2023-02-28T05:25:22.804Z,100591.81
2023-02-28T05:26:27.713Z,100590.91
2023-02-28T05:27:31.726Z,100594.41
2023-02-28T05:28:35.674Z,100585.69
2023-02-28T05:29:43.026Z,100582.22
2023-02-28T05:30:47.667Z,100594.44
2023-02-28T05:31:51.466Z,100593.56
2023-02-28T05:32:56.256Z,100591.84
2023-02-28T05:34:00.783Z,100595.31
2023-02-28T05:35:11.318Z,100591.84
2023-02-28T05:36:15.855Z,100598.81
2023-02-28T05:37:19.619Z,100599.69
2023-02-28T05:38:23.650Z,100602.34
2023-02-28T05:39:27.663Z,100606.72
2023-02-28T05:40:31.558Z,100607.56
2023-02-28T05:41:35.295Z,100601.44
2023-02-28T05:42:39.631Z,100599.72
2023-02-28T05:43:43.997Z,100604.94
2023-02-28T05:44:48.325Z,100607.53
2023-02-28T05:45:53.566Z,100607.53
2023-02-28T05:46:57.390Z,100613.69
2023-02-28T05:48:00.991Z,100618.03
2023-02-28T05:49:09.237Z,100613.66
2023-02-28T05:50:13.631Z,100617.16
2023-02-28T05:51:18.217Z,100622.38
2023-02-28T05:52:22.050Z,100619.72
2023-02-28T05:53:25.776Z,100622.34
2023-02-28T05:54:29.724Z,100631.94
2023-02-28T05:55:33.643Z,100632.78
2023-02-28T05:56:40.221Z,100638.03
2023-02-28T05:57:45.861Z,100634.53
2023-02-28T05:58:49.618Z,100631.91
2023-02-28T05:59:54.815Z,100633.66
2023-02-28T06:01:00.137Z,100638.00
2023-02-28T06:02:08.922Z,100633.66
2023-02-28T06:03:12.966Z,100632.78
2023-02-28T06:04:31.005Z,100636.25
2023-02-28T06:05:36.122Z,100630.19
2023-02-28T06:06:40.466Z,100634.53
2023-02-28T06:07:45.106Z,100635.41
2023-02-28T06:08:48.968Z,100632.78
2023-02-28T06:09:52.794Z,100629.28
2023-02-28T06:10:56.987Z,100631.88
2023-02-28T06:12:05.731Z,100631.03
2023-02-28T06:13:14.143Z,100641.47
2023-02-28T06:14:20.515Z,100635.34
2023-02-28T06:15:24.546Z,100631.00
2023-02-28T06:16:30.925Z,100637.09
2023-02-28T06:17:35.324Z,100631.00
2023-02-28T06:18:40.772Z,100635.34
2023-02-28T06:19:45.338Z,100641.44
2023-02-28T06:20:56.780Z,100640.59
2023-02-28T06:22:02.194Z,100644.03
2023-02-28T06:23:12.497Z,100644.03
2023-02-28T06:24:16.393Z,100643.13
2023-02-28T06:25:20.357Z,100651.88
2023-02-28T06:26:24.473Z,100657.09
2023-02-28T06:27:28.476Z,100646.66
2023-02-28T06:28:32.183Z,100651.00
2023-02-28T06:29:37.102Z,100642.25
2023-02-28T06:30:41.158Z,100638.75
2023-02-28T06:31:46.170Z,100637.88
2023-02-28T06:32:50.645Z,100650.03
2023-02-28T06:33:54.598Z,100643.97
2023-02-28T06:35:01.619Z,100653.56
2023-02-28T06:36:11.420Z,100657.91
2023-02-28T06:37:24.411Z,100647.44
2023-02-28T06:38:29.462Z,100652.63
2023-02-28T06:39:43.777Z,100656.09
2023-02-28T06:41:01.026Z,100652.59
2023-02-28T06:42:14.198Z,100650.00
2023-02-28T06:43:18.367Z,100650.84
2023-02-28T06:44:23.502Z,100652.53
2023-02-28T06:45:34.806Z,100656.84
2023-02-28T06:46:44.163Z,100650.72
2023-02-28T06:47:53.308Z,100658.59
2023-02-28T06:48:57.482Z,100654.16
2023-02-28T06:50:02.659Z,100660.25
2023-02-28T06:51:15.157Z,100661.09
2023-02-28T06:52:18.740Z,100666.31
2023-02-28T06:53:22.303Z,100664.53
2023-02-28T06:54:26.138Z,100664.50
2023-02-28T06:55:30.818Z,100664.47
2023-02-28T06:56:38.159Z,100671.44
2023-02-28T06:57:41.652Z,100666.16
2023-02-28T06:58:50.605Z,100665.28
2023-02-28T06:59:54.422Z,100665.28
2023-02-28T07:00:58.341Z,100667.03
2023-02-28T07:02:12.489Z,100662.59
2023-02-28T07:03:20.681Z,100667.88
2023-02-28T07:04:25.136Z,100669.63
2023-02-28T07:05:28.966Z,100674.81
2023-02-28T07:06:33.291Z,100667.00
2023-02-28T07:07:50.593Z,100668.72
2023-02-28T07:08:58.376Z,100673.06
2023-02-28T07:10:02.200Z,100680.91
2023-02-28T07:11:06.214Z,100679.09
2023-02-28T07:12:13.760Z,100673.84
2023-02-28T07:13:20.854Z,100677.28
2023-02-28T07:14:24.529Z,100678.13
2023-02-28T07:15:28.904Z,100676.38
2023-02-28T07:16:33.037Z,100674.59
2023-02-28T07:17:36.802Z,100680.69
2023-02-28T07:18:41.104Z,100678.91
2023-02-28T07:19:44.649Z,100678.88
2023-02-28T07:20:48.198Z,100684.06
2023-02-28T07:21:51.890Z,100688.41
2023-02-28T07:22:59.289Z,100687.50
2023-02-28T07:24:03.364Z,100680.47
2023-02-28T07:25:11.953Z,100685.72
2023-02-28T07:26:21.525Z,100680.47
2023-02-28T07:27:26.667Z,100683.06
2023-02-28T07:28:32.307Z,100687.44
2023-02-28T07:29:36.003Z,100678.69
2023-02-28T07:30:40.142Z,100682.22
2023-02-28T07:31:43.893Z,100691.84
2023-02-28T07:32:49.208Z,100683.06
2023-02-28T07:33:52.798Z,100692.66
2023-02-28T07:34:57.157Z,100689.09
2023-02-28T07:36:16.456Z,100689.94
2023-02-28T07:37:21.714Z,100688.16
2023-02-28T07:38:25.799Z,100693.44
2023-02-28T07:39:30.064Z,100689.94
2023-02-28T07:40:37.558Z,100691.66
2023-02-28T07:41:44.616Z,100697.81
2023-02-28T07:42:48.465Z,100695.31
2023-02-28T07:43:58.486Z,100688.44
2023-02-28T07:45:02.774Z,100693.75
2023-02-28T07:46:12.725Z,100689.44
2023-02-28T07:47:16.632Z,100692.97
2023-02-28T07:48:20.255Z,100699.13
2023-02-28T07:49:24.011Z,100692.00
2023-02-28T07:50:31.986Z,100694.50
2023-02-28T07:51:35.749Z,100690.88
2023-02-28T07:52:40.859Z,100686.25
2023-02-28T07:53:44.444Z,100683.47
2023-02-28T07:54:48.248Z,100689.56
2023-02-28T07:55:51.987Z,100691.03
2023-02-28T07:56:55.985Z,100684.81
2023-02-28T07:58:00.134Z,100682.00
2023-02-28T07:59:04.480Z,100672.34
2023-02-28T08:00:16.519Z,100682.84
2023-02-28T08:01:20.967Z,100683.75
2023-02-28T08:02:25.705Z,100678.47
2023-02-28T08:03:29.387Z,100685.59
2023-02-28T08:04:34.432Z,100682.16
2023-02-28T08:05:41.310Z,100685.50
2023-02-28T08:06:45.589Z,100680.34
2023-02-28T08:07:51.132Z,100683.84
2023-02-28T08:08:57.749Z,100684.63
2023-02-28T08:10:02.031Z,100684.66
2023-02-28T08:11:09.322Z,100681.09
2023-02-28T08:12:13.764Z,100686.56
2023-02-28T08:13:18.092Z,100693.69
2023-02-28T08:14:21.955Z,100687.44
2023-02-28T08:15:25.755Z,100691.91
2023-02-28T08:16:29.781Z,100696.34
2023-02-28T08:17:35.388Z,100691.03
2023-02-28T08:18:39.779Z,100685.94
2023-02-28T08:19:46.123Z,100686.91
2023-02-28T08:20:50.275Z,100682.47
2023-02-28T08:21:54.562Z,100691.19
2023-02-28T08:22:58.246Z,100692.75
2023-02-28T08:24:02.011Z,100688.47
2023-02-28T08:25:10.301Z,100689.19
2023-02-28T08:26:14.611Z,100689.94
2023-02-28T08:27:18.484Z,100685.31
2023-02-28T08:28:25.500Z,100689.41
2023-02-28T08:29:31.373Z,100683.97
2023-02-28T08:30:35.244Z,100678.59
2023-02-28T08:31:39.376Z,100685.25
2023-02-28T08:32:46.443Z,100686.72
2023-02-28T08:33:53.169Z,100690.16
2023-02-28T08:35:04.509Z,100688.28
2023-02-28T08:36:12.737Z,100689.31
2023-02-28T08:37:16.560Z,100683.09
2023-02-28T08:38:20.404Z,100688.31
2023-02-28T08:39:24.292Z,100681.22
2023-02-28T08:40:28.070Z,100690.34
2023-02-28T08:41:32.620Z,100689.13
2023-02-28T08:42:41.785Z,100694.13
2023-02-28T08:43:45.677Z,100691.03
2023-02-28T08:44:49.453Z,100682.34
2023-02-28T08:45:55.583Z,100688.31
2023-02-28T08:46:59.443Z,100689.19
2023-02-28T08:48:03.632Z,100681.50
2023-02-28T08:49:12.748Z,100684.63
2023-02-28T08:50:18.660Z,100685.47
2023-02-28T08:51:28.271Z,100680.00
2023-02-28T08:52:33.882Z,100685.66
2023-02-28T08:53:40.677Z,100680.84
2023-02-28T08:54:44.404Z,100680.38
2023-02-28T08:55:48.503Z,100684.41
2023-02-28T08:56:52.927Z,100690.44
2023-02-28T08:57:57.208Z,100685.00
2023-02-28T08:59:02.972Z,100678.97
2023-02-28T09:00:14.738Z,100669.06
2023-02-28T09:01:23.027Z,100677.38
2023-02-28T09:02:27.394Z,100673.56
2023-02-28T09:03:31.317Z,100674.66
2023-02-28T09:04:35.677Z,100668.94
2023-02-28T09:05:39.415Z,100672.00
2023-02-28T09:06:52.332Z,100660.22
2023-02-28T09:08:09.441Z,100660.25
2023-02-28T09:09:13.480Z,100656.44
2023-02-28T09:10:17.528Z,100663.97
2023-02-28T09:11:21.356Z,100661.88
2023-02-28T09:12:39.118Z,100662.66
2023-02-28T09:13:43.521Z,100656.66
2023-02-28T09:14:47.155Z,100659.81
2023-02-28T09:15:51.093Z,100659.38
2023-02-28T09:16:54.694Z,100661.94
2023-02-28T09:17:58.255Z,100655.47
2023-02-28T09:19:02.857Z,100656.00
2023-02-28T09:20:11.126Z,100661.88
2023-02-28T09:21:19.370Z,100662.88
2023-02-28T09:22:22.967Z,100661.16
2023-02-28T09:23:32.525Z,100653.53
2023-02-28T09:24:38.629Z,100659.28
2023-02-28T09:25:52.164Z,100659.91
2023-02-28T09:27:04.939Z,100665.91
2023-02-28T09:28:13.167Z,100663.84
2023-02-28T09:29:18.608Z,100661.97
2023-02-28T09:30:22.495Z,100660.88
2023-02-28T09:31:29.581Z,100668.06
2023-02-28T09:32:33.397Z,100665.00
2023-02-28T09:33:37.463Z,100660.72
2023-02-28T09:34:41.838Z,100658.84
2023-02-28T09:35:45.744Z,100659.44
2023-02-28T09:36:50.093Z,100661.81
2023-02-28T09:37:54.731Z,100663.91
2023-02-28T09:38:58.580Z,100656.59
2023-02-28T09:40:02.631Z,100658.66
2023-02-28T09:41:23.746Z,100664.78
2023-02-28T09:42:35.620Z,100660.09
2023-02-28T09:43:46.176Z,100670.72
2023-02-28T09:44:51.577Z,100664.09
2023-02-28T09:46:22.316Z,100667.13
2023-02-28T09:47:35.247Z,100666.94
2023-02-28T09:48:46.654Z,100662.50
2023-02-28T09:49:51.087Z,100664.25
2023-02-28T09:51:08.013Z,100664.13
2023-02-28T09:52:34.234Z,100663.03
2023-02-28T09:53:40.941Z,100676.94
2023-02-28T09:54:44.656Z,100667.81
2023-02-28T09:56:04.242Z,100680.50
2023-02-28T09:57:41.394Z,100681.19
2023-02-28T09:59:00.998Z,100678.84
2023-02-28T10:00:13.928Z,100673.63
2023-02-28T10:01:55.040Z,100679.19
2023-02-28T10:03:29.768Z,100678.91
2023-02-28T10:05:01.452Z,100672.31
2023-02-28T10:06:09.556Z,100672.00
2023-02-28T10:07:44.782Z,100682.91
2023-02-28T10:09:05.540Z,100678.59
2023-02-28T10:10:25.719Z,100696.00
2023-02-28T10:11:32.794Z,100676.13
2023-02-28T10:12:44.467Z,100683.53
2023-02-28T10:13:53.929Z,100685.19
2023-02-28T10:15:01.080Z,100678.94
2023-02-28T10:16:27.840Z,100679.97
2023-02-28T10:17:55.059Z,100675.53
2023-02-28T10:19:21.413Z,100685.88
2023-02-28T10:20:32.312Z,100676.31
2023-02-28T10:21:48.885Z,100679.09
2023-02-28T10:23:20.965Z,100674.00
2023-02-28T10:24:47.081Z,100667.00
2023-02-28T10:26:14.772Z,100681.31
2023-02-28T10:27:26.247Z,100667.81
2023-02-28T10:28:32.043Z,100666.09
2023-02-28T10:29:35.962Z,100661.69
2023-02-28T10:30:48.638Z,100660.00
2023-02-28T10:31:52.792Z,100666.16
2023-02-28T10:32:57.703Z,100654.81
2023-02-28T10:34:01.640Z,100650.34
2023-02-28T10:35:22.121Z,100658.34
2023-02-28T10:36:25.727Z,100648.09
2023-02-28T10:37:30.237Z,100655.53
2023-02-28T10:38:40.875Z,100653.50
2023-02-28T10:39:48.148Z,100659.06
2023-02-28T10:41:04.039Z,100652.75
2023-02-28T10:42:27.720Z,100647.44
2023-02-28T10:43:34.147Z,100651.78
2023-02-28T10:44:38.096Z,100647.75
2023-02-28T10:46:01.879Z,100647.94
2023-02-28T10:47:05.541Z,100648.19
2023-02-28T10:48:14.639Z,100650.97
2023-02-28T10:49:25.845Z,100646.66
2023-02-28T10:50:36.960Z,100646.22
2023-02-28T10:51:42.599Z,100644.78
2023-02-28T10:52:46.416Z,100643.22
2023-02-28T10:54:03.373Z,100633.72
2023-02-28T10:55:24.808Z,100645.38
2023-02-28T10:56:29.989Z,100645.63
2023-02-28T10:57:39.165Z,100640.69
2023-02-28T10:59:23.350Z,100638.22
2023-02-28T11:00:35.841Z,100642.66
2023-02-28T11:01:42.344Z,100643.50
2023-02-28T11:02:47.633Z,100646.06
2023-02-28T11:03:52.685Z,100630.28
2023-02-28T11:04:57.202Z,100640.72
2023-02-28T11:06:14.312Z,100634.59
2023-02-28T11:07:27.873Z,100638.31
2023-02-28T11:08:54.882Z,100633.81
2023-02-28T11:10:00.462Z,100625.06
2023-02-28T11:11:07.482Z,100628.69
2023-02-28T11:12:34.114Z,100625.28
2023-02-28T11:13:39.384Z,100628.72
2023-02-28T11:14:53.338Z,100630.44
2023-02-28T11:16:01.738Z,100636.81
2023-02-28T11:17:25.816Z,100620.38
2023-02-28T11:18:40.225Z,100622.97
2023-02-28T11:19:50.941Z,100624.81
2023-02-28T11:20:58.847Z,100613.41
2023-02-28T11:22:07.833Z,100627.56
2023-02-28T11:23:16.446Z,100622.22
2023-02-28T11:24:31.032Z,100616.94
2023-02-28T11:25:39.312Z,100612.50
2023-02-28T11:26:47.614Z,100614.34
2023-02-28T11:28:06.176Z,100609.88
2023-02-28T11:29:28.288Z,100608.13
2023-02-28T11:30:38.119Z,100607.25
2023-02-28T11:31:41.693Z,100611.56
2023-02-28T11:32:51.191Z,100603.63
2023-02-28T11:33:57.680Z,100603.56
2023-02-28T11:35:23.447Z,100607.00
2023-02-28T11:36:31.755Z,100603.50
2023-02-28T11:37:35.989Z,100599.19
2023-02-28T11:38:40.406Z,100605.38
2023-02-28T11:39:46.613Z,100593.94
2023-02-28T11:40:56.576Z,100606.31
2023-02-28T11:42:36.290Z,100586.00
2023-02-28T11:44:04.923Z,100582.47
2023-02-28T11:45:35.916Z,100600.81
2023-02-28T11:46:51.536Z,100583.31
2023-02-28T11:48:21.339Z,100595.53
2023-02-28T11:50:04.677Z,100585.94
2023-02-28T11:51:29.934Z,100582.56
2023-02-28T11:52:57.702Z,100586.16
2023-02-28T11:54:52.936Z,100588.59
2023-02-28T11:56:10.430Z,100588.72
2023-02-28T11:57:22.763Z,100591.28
2023-02-28T11:58:41.644Z,100593.97
2023-02-28T11:59:57.582Z,100586.91
2023-02-28T12:01:47.332Z,100585.97
2023-02-28T12:03:04.104Z,100578.03
2023-02-28T12:04:49.981Z,100570.91
2023-02-28T12:06:35.420Z,100577.81
2023-02-28T12:08:17.093Z,100580.41
2023-02-28T12:09:35.676Z,100576.78
2023-02-28T12:11:13.026Z,100575.03
2023-02-28T12:12:43.944Z,100578.59
2023-02-28T12:14:15.676Z,100579.75
2023-02-28T12:15:36.853Z,100578.00
2023-02-28T12:17:20.989Z,100576.28
2023-02-28T12:19:18.861Z,100585.03
2023-02-28T12:20:51.679Z,100574.50
2023-02-28T12:22:22.766Z,100582.56
2023-02-28T12:23:50.413Z,100584.16
2023-02-28T12:25:08.628Z,100571.03
2023-02-28T12:26:41.032Z,100585.16
2023-02-28T12:27:51.417Z,100582.41
2023-02-28T12:29:30.531Z,100585.88
2023-02-28T12:30:42.246Z,100579.75
2023-02-28T12:32:25.108Z,100581.41
2023-02-28T12:33:39.650Z,100586.66
2023-02-28T12:34:54.279Z,100579.63
2023-02-28T12:36:04.558Z,100582.22
2023-02-28T12:37:24.189Z,100577.88
2023-02-28T12:38:43.823Z,100581.22
2023-02-28T12:39:56.268Z,100583.69
2023-02-28T12:41:15.285Z,100577.47
2023-02-28T12:42:32.342Z,100580.94
2023-02-28T12:43:47.191Z,100572.91
2023-02-28T12:45:00.134Z,100577.22
2023-02-28T12:46:26.743Z,100576.66
2023-02-28T12:47:30.817Z,100580.25
2023-02-28T12:48:54.606Z,100584.53
2023-02-28T12:50:07.277Z,100577.56
2023-02-28T12:51:13.534Z,100582.66
2023-02-28T12:52:35.328Z,100581.59
2023-02-28T12:54:16.632Z,100580.66
2023-02-28T12:55:44.926Z,100579.97
2023-02-28T12:57:19.208Z,100575.50
2023-02-28T12:58:50.581Z,100571.25
2023-02-28T13:00:14.489Z,100578.97
2023-02-28T13:02:02.304Z,100561.47
2023-02-28T13:04:08.157Z,100568.47
2023-02-28T13:05:29.543Z,100564.91
2023-02-28T13:07:16.486Z,100561.44
2023-02-28T13:08:42.834Z,100563.25
2023-02-28T13:10:03.455Z,100564.06
2023-02-28T13:11:16.438Z,100565.66
2023-02-28T13:12:26.153Z,100562.84
2023-02-28T13:13:32.431Z,100568.84
2023-02-28T13:14:36.737Z,100561.81
2023-02-28T13:15:42.301Z,100560.03
2023-02-28T13:17:15.112Z,100565.22
2023-02-28T13:18:42.979Z,100560.00
2023-02-28T13:19:55.914Z,100567.03
2023-02-28T13:21:02.712Z,100569.63
2023-02-28T13:22:21.556Z,100553.69
2023-02-28T13:24:00.857Z,100558.78
2023-02-28T13:25:34.441Z,100551.88
2023-02-28T13:26:37.962Z,100558.72
2023-02-28T13:27:43.147Z,100550.72
2023-02-28T13:28:54.328Z,100554.22
2023-02-28T13:29:58.112Z,100553.34
2023-02-28T13:31:06.299Z,100545.53
2023-02-28T13:32:10.108Z,100551.56
2023-02-28T13:34:07.465Z,100553.34
2023-02-28T13:35:11.341Z,100543.47
2023-02-28T13:36:15.570Z,100550.34
2023-02-28T13:37:30.715Z,100539.06
2023-02-28T13:38:43.176Z,100539.84
2023-02-28T13:39:58.265Z,100542.56